sensor_id;sensor_type;location;lat;lon;timestamp;P1;durP1;ratioP1;P2;durP2;ratioP2
10116;SDS011;5098;48.792;9.012;2022-09-03T00:00:57;4.93;;;3.60;;
10116;SDS011;5098;48.792;9.012;2022-09-03T00:03:38;5.67;;;3.33;;
10116;SDS011;5098;48.792;9.012;2022-09-03T00:11:02;4.27;;;3.20;;
10116;SDS011;5098;48.792;9.012;2022-09-03T00:13:35;4.20;;;3.30;;
10116;SDS011;5098;48.792;9.012;2022-09-03T00:16:02;4.30;;;2.80;;
10116;SDS011;5098;48.792;9.012;2022-09-03T00:18:34;5.83;;;3.37;;
10116;SDS011;5098;48.792;9.012;2022-09-03T00:21:06;5.90;;;3.40;;
10116;SDS011;5098;48.792;9.012;2022-09-03T00:23:34;4.50;;;3.30;;
10116;SDS011;5098;48.792;9.012;2022-09-03T00:28:40;5.07;;;3.57;;
10116;SDS011;5098;48.792;9.012;2022-09-03T00:31:53;4.33;;;2.80;;
10116;SDS011;5098;48.792;9.012;2022-09-03T00:33:55;4.53;;;3.27;;
10116;SDS011;5098;48.792;9.012;2022-09-03T00:36:37;5.20;;;3.50;;
10116;SDS011;5098;48.792;9.012;2022-09-03T00:39:07;4.80;;;2.70;;
10116;SDS011;5098;48.792;9.012;2022-09-03T00:41:37;3.43;;;3.13;;
10116;SDS011;5098;48.792;9.012;2022-09-03T00:49:38;9.47;;;3.67;;
10116;SDS011;5098;48.792;9.012;2022-09-03T01:00:12;3.60;;;3.30;;
10116;SDS011;5098;48.792;9.012;2022-09-03T01:15:25;7.73;;;4.10;;
10116;SDS011;5098;48.792;9.012;2022-09-03T01:18:14;4.43;;;4.00;;
10116;SDS011;5098;48.792;9.012;2022-09-03T01:26:05;4.50;;;3.47;;
10116;SDS011;5098;48.792;9.012;2022-09-03T01:28:57;3.60;;;3.13;;
10116;SDS011;5098;48.792;9.012;2022-09-03T01:33:54;3.53;;;3.13;;
10116;SDS011;5098;48.792;9.012;2022-09-03T01:36:24;4.10;;;2.80;;
10116;SDS011;5098;48.792;9.012;2022-09-03T01:38:55;3.30;;;3.00;;
10116;SDS011;5098;48.792;9.012;2022-09-03T01:44:54;5.13;;;3.67;;
10116;SDS011;5098;48.792;9.012;2022-09-03T01:49:44;3.00;;;2.70;;
10116;SDS011;5098;48.792;9.012;2022-09-03T01:52:15;4.83;;;3.23;;
10116;SDS011;5098;48.792;9.012;2022-09-03T01:54:47;3.80;;;3.30;;
10116;SDS011;5098;48.792;9.012;2022-09-03T01:57:38;3.57;;;3.27;;
10116;SDS011;5098;48.792;9.012;2022-09-03T02:00:09;2.80;;;2.60;;
10116;SDS011;5098;48.792;9.012;2022-09-03T02:02:37;3.83;;;2.90;;
10116;SDS011;5098;48.792;9.012;2022-09-03T02:05:07;4.57;;;3.03;;
10116;SDS011;5098;48.792;9.012;2022-09-03T02:07:39;4.10;;;2.73;;
10116;SDS011;5098;48.792;9.012;2022-09-03T02:10:07;2.97;;;2.77;;
10116;SDS011;5098;48.792;9.012;2022-09-03T02:12:34;4.47;;;3.17;;
10116;SDS011;5098;48.792;9.012;2022-09-03T02:15:04;3.33;;;2.90;;
10116;SDS011;5098;48.792;9.012;2022-09-03T02:17:31;3.20;;;3.00;;
10116;SDS011;5098;48.792;9.012;2022-09-03T02:19:59;3.07;;;2.87;;
10116;SDS011;5098;48.792;9.012;2022-09-03T02:22:28;2.83;;;2.60;;
10116;SDS011;5098;48.792;9.012;2022-09-03T02:24:54;3.10;;;2.73;;
10116;SDS011;5098;48.792;9.012;2022-09-03T02:27:20;3.10;;;2.80;;
10116;SDS011;5098;48.792;9.012;2022-09-03T02:29:46;4.20;;;2.93;;
10116;SDS011;5098;48.792;9.012;2022-09-03T02:32:12;5.43;;;3.00;;
10116;SDS011;5098;48.792;9.012;2022-09-03T02:34:40;3.63;;;2.60;;
10116;SDS011;5098;48.792;9.012;2022-09-03T02:37:12;2.80;;;2.60;;
10116;SDS011;5098;48.792;9.012;2022-09-03T02:39:38;4.80;;;2.93;;
10116;SDS011;5098;48.792;9.012;2022-09-03T02:42:05;3.80;;;2.83;;
10116;SDS011;5098;48.792;9.012;2022-09-03T02:44:32;3.40;;;3.10;;
10116;SDS011;5098;48.792;9.012;2022-09-03T02:47:00;3.60;;;3.07;;
10116;SDS011;5098;48.792;9.012;2022-09-03T02:49:27;3.60;;;3.30;;
10116;SDS011;5098;48.792;9.012;2022-09-03T02:51:57;4.53;;;2.93;;
10116;SDS011;5098;48.792;9.012;2022-09-03T02:54:25;3.27;;;2.97;;
10116;SDS011;5098;48.792;9.012;2022-09-03T02:56:51;3.83;;;3.43;;
10116;SDS011;5098;48.792;9.012;2022-09-03T02:59:17;4.37;;;3.20;;
10116;SDS011;5098;48.792;9.012;2022-09-03T03:01:44;3.37;;;3.10;;
10116;SDS011;5098;48.792;9.012;2022-09-03T03:04:10;7.70;;;3.60;;
10116;SDS011;5098;48.792;9.012;2022-09-03T03:06:36;2.80;;;2.60;;
10116;SDS011;5098;48.792;9.012;2022-09-03T03:09:02;3.67;;;3.03;;
10116;SDS011;5098;48.792;9.012;2022-09-03T03:11:30;4.73;;;3.23;;
10116;SDS011;5098;48.792;9.012;2022-09-03T03:13:56;3.03;;;2.83;;
10116;SDS011;5098;48.792;9.012;2022-09-03T03:16:22;3.60;;;3.10;;
10116;SDS011;5098;48.792;9.012;2022-09-03T03:18:48;5.43;;;3.40;;
10116;SDS011;5098;48.792;9.012;2022-09-03T03:21:15;3.57;;;3.27;;
10116;SDS011;5098;48.792;9.012;2022-09-03T03:23:42;3.50;;;3.20;;
10116;SDS011;5098;48.792;9.012;2022-09-03T03:26:10;3.50;;;3.20;;
10116;SDS011;5098;48.792;9.012;2022-09-03T03:28:37;3.10;;;2.90;;
10116;SDS011;5098;48.792;9.012;2022-09-03T03:31:07;4.20;;;2.90;;
10116;SDS011;5098;48.792;9.012;2022-09-03T03:33:34;3.60;;;3.30;;
10116;SDS011;5098;48.792;9.012;2022-09-03T03:36:06;3.77;;;2.80;;
10116;SDS011;5098;48.792;9.012;2022-09-03T03:38:33;4.20;;;3.10;;
10116;SDS011;5098;48.792;9.012;2022-09-03T03:41:05;2.80;;;2.60;;
10116;SDS011;5098;48.792;9.012;2022-09-03T03:43:32;4.00;;;3.20;;
10116;SDS011;5098;48.792;9.012;2022-09-03T03:45:58;3.90;;;3.30;;
10116;SDS011;5098;48.792;9.012;2022-09-03T03:48:24;3.67;;;3.20;;
10116;SDS011;5098;48.792;9.012;2022-09-03T03:50:51;3.17;;;2.87;;
10116;SDS011;5098;48.792;9.012;2022-09-03T03:53:18;3.43;;;3.00;;
10116;SDS011;5098;48.792;9.012;2022-09-03T03:55:57;2.77;;;2.57;;
10116;SDS011;5098;48.792;9.012;2022-09-03T03:58:23;13.60;;;3.47;;
10116;SDS011;5098;48.792;9.012;2022-09-03T04:00:50;3.40;;;3.10;;
10116;SDS011;5098;48.792;9.012;2022-09-03T04:03:17;3.37;;;2.77;;
10116;SDS011;5098;48.792;9.012;2022-09-03T04:05:43;2.83;;;2.53;;
10116;SDS011;5098;48.792;9.012;2022-09-03T04:08:09;3.60;;;2.97;;
10116;SDS011;5098;48.792;9.012;2022-09-03T04:10:35;5.10;;;2.97;;
10116;SDS011;5098;48.792;9.012;2022-09-03T04:13:01;4.60;;;3.03;;
10116;SDS011;5098;48.792;9.012;2022-09-03T04:15:27;5.20;;;2.93;;
10116;SDS011;5098;48.792;9.012;2022-09-03T04:17:53;6.60;;;3.07;;
10116;SDS011;5098;48.792;9.012;2022-09-03T04:20:20;3.10;;;2.80;;
10116;SDS011;5098;48.792;9.012;2022-09-03T04:22:46;2.90;;;2.60;;
10116;SDS011;5098;48.792;9.012;2022-09-03T04:25:12;3.93;;;2.97;;
10116;SDS011;5098;48.792;9.012;2022-09-03T04:27:38;3.00;;;2.70;;
10116;SDS011;5098;48.792;9.012;2022-09-03T04:30:04;3.00;;;2.80;;
10116;SDS011;5098;48.792;9.012;2022-09-03T04:32:30;3.00;;;2.50;;
10116;SDS011;5098;48.792;9.012;2022-09-03T04:35:15;3.90;;;2.70;;
10116;SDS011;5098;48.792;9.012;2022-09-03T04:37:41;4.90;;;3.20;;
10116;SDS011;5098;48.792;9.012;2022-09-03T04:40:07;3.40;;;3.10;;
10116;SDS011;5098;48.792;9.012;2022-09-03T04:42:33;4.40;;;3.10;;
10116;SDS011;5098;48.792;9.012;2022-09-03T04:44:59;3.37;;;3.07;;
10116;SDS011;5098;48.792;9.012;2022-09-03T04:47:25;4.80;;;2.93;;
10116;SDS011;5098;48.792;9.012;2022-09-03T04:49:52;3.37;;;3.07;;
10116;SDS011;5098;48.792;9.012;2022-09-03T04:52:19;6.17;;;2.90;;
10116;SDS011;5098;48.792;9.012;2022-09-03T04:54:45;3.80;;;3.20;;
10116;SDS011;5098;48.792;9.012;2022-09-03T04:57:11;4.27;;;2.97;;
10116;SDS011;5098;48.792;9.012;2022-09-03T04:59:37;2.70;;;2.50;;
10116;SDS011;5098;48.792;9.012;2022-09-03T05:02:05;4.13;;;3.00;;
10116;SDS011;5098;48.792;9.012;2022-09-03T05:04:32;3.70;;;3.37;;
10116;SDS011;5098;48.792;9.012;2022-09-03T05:06:58;4.97;;;4.57;;
10116;SDS011;5098;48.792;9.012;2022-09-03T05:09:24;3.90;;;3.60;;
10116;SDS011;5098;48.792;9.012;2022-09-03T05:11:50;4.47;;;4.00;;
10116;SDS011;5098;48.792;9.012;2022-09-03T05:14:16;4.37;;;3.97;;
10116;SDS011;5098;48.792;9.012;2022-09-03T05:16:42;4.43;;;3.77;;
10116;SDS011;5098;48.792;9.012;2022-09-03T05:19:08;4.10;;;3.80;;
10116;SDS011;5098;48.792;9.012;2022-09-03T05:21:35;4.70;;;3.70;;
10116;SDS011;5098;48.792;9.012;2022-09-03T05:24:01;4.10;;;3.80;;
10116;SDS011;5098;48.792;9.012;2022-09-03T05:26:29;6.60;;;4.43;;
10116;SDS011;5098;48.792;9.012;2022-09-03T05:28:56;5.27;;;4.87;;
10116;SDS011;5098;48.792;9.012;2022-09-03T05:31:24;5.27;;;4.77;;
10116;SDS011;5098;48.792;9.012;2022-09-03T05:33:52;4.47;;;4.17;;
10116;SDS011;5098;48.792;9.012;2022-09-03T05:36:20;5.60;;;5.20;;
10116;SDS011;5098;48.792;9.012;2022-09-03T05:38:50;5.30;;;4.90;;
10116;SDS011;5098;48.792;9.012;2022-09-03T05:41:18;5.30;;;4.80;;
10116;SDS011;5098;48.792;9.012;2022-09-03T05:43:49;5.50;;;4.93;;
10116;SDS011;5098;48.792;9.012;2022-09-03T05:46:28;5.20;;;4.80;;
10116;SDS011;5098;48.792;9.012;2022-09-03T05:49:01;4.83;;;4.40;;
10116;SDS011;5098;48.792;9.012;2022-09-03T05:51:27;5.13;;;4.63;;
10116;SDS011;5098;48.792;9.012;2022-09-03T05:53:54;6.00;;;4.27;;
10116;SDS011;5098;48.792;9.012;2022-09-03T05:56:21;5.60;;;5.10;;
10116;SDS011;5098;48.792;9.012;2022-09-03T05:58:48;6.13;;;4.80;;
10116;SDS011;5098;48.792;9.012;2022-09-03T06:01:16;5.30;;;4.90;;
10116;SDS011;5098;48.792;9.012;2022-09-03T06:03:43;4.93;;;4.17;;
10116;SDS011;5098;48.792;9.012;2022-09-03T06:06:09;5.00;;;4.60;;
10116;SDS011;5098;48.792;9.012;2022-09-03T06:08:37;5.50;;;5.00;;
10116;SDS011;5098;48.792;9.012;2022-09-03T06:11:03;4.93;;;4.53;;
10116;SDS011;5098;48.792;9.012;2022-09-03T06:13:30;6.57;;;4.83;;
10116;SDS011;5098;48.792;9.012;2022-09-03T06:15:57;5.17;;;4.77;;
10116;SDS011;5098;48.792;9.012;2022-09-03T06:18:27;6.17;;;5.67;;
10116;SDS011;5098;48.792;9.012;2022-09-03T06:20:53;5.20;;;4.80;;
10116;SDS011;5098;48.792;9.012;2022-09-03T06:23:20;6.07;;;4.83;;
10116;SDS011;5098;48.792;9.012;2022-09-03T06:25:46;6.37;;;5.77;;
10116;SDS011;5098;48.792;9.012;2022-09-03T06:28:12;5.77;;;5.17;;
10116;SDS011;5098;48.792;9.012;2022-09-03T06:30:38;4.93;;;4.50;;
10116;SDS011;5098;48.792;9.012;2022-09-03T06:33:05;4.87;;;4.43;;
10116;SDS011;5098;48.792;9.012;2022-09-03T06:35:31;6.07;;;5.47;;
10116;SDS011;5098;48.792;9.012;2022-09-03T06:37:57;5.70;;;5.20;;
10116;SDS011;5098;48.792;9.012;2022-09-03T06:40:24;5.80;;;5.30;;
10116;SDS011;5098;48.792;9.012;2022-09-03T06:42:56;5.57;;;5.17;;
10116;SDS011;5098;48.792;9.012;2022-09-03T06:45:28;8.20;;;5.03;;
10116;SDS011;5098;48.792;9.012;2022-09-03T06:47:54;5.50;;;5.10;;
10116;SDS011;5098;48.792;9.012;2022-09-03T06:50:20;5.50;;;5.00;;
10116;SDS011;5098;48.792;9.012;2022-09-03T06:52:50;5.30;;;4.80;;
10116;SDS011;5098;48.792;9.012;2022-09-03T06:55:19;5.00;;;4.60;;
10116;SDS011;5098;48.792;9.012;2022-09-03T06:57:45;5.40;;;5.00;;
10116;SDS011;5098;48.792;9.012;2022-09-03T07:00:11;4.50;;;4.20;;
10116;SDS011;5098;48.792;9.012;2022-09-03T07:02:38;5.67;;;5.10;;
10116;SDS011;5098;48.792;9.012;2022-09-03T07:05:06;5.03;;;4.53;;
10116;SDS011;5098;48.792;9.012;2022-09-03T07:07:32;5.37;;;4.97;;
10116;SDS011;5098;48.792;9.012;2022-09-03T07:09:58;5.07;;;4.57;;
10116;SDS011;5098;48.792;9.012;2022-09-03T07:12:25;5.17;;;4.60;;
10116;SDS011;5098;48.792;9.012;2022-09-03T07:14:52;7.37;;;6.77;;
10116;SDS011;5098;48.792;9.012;2022-09-03T07:17:18;4.93;;;4.53;;
10116;SDS011;5098;48.792;9.012;2022-09-03T07:19:44;5.73;;;4.20;;
10116;SDS011;5098;48.792;9.012;2022-09-03T07:22:10;5.10;;;4.60;;
10116;SDS011;5098;48.792;9.012;2022-09-03T07:24:36;5.10;;;4.60;;
10116;SDS011;5098;48.792;9.012;2022-09-03T07:27:02;6.90;;;4.53;;
10116;SDS011;5098;48.792;9.012;2022-09-03T07:29:29;6.13;;;4.20;;
10116;SDS011;5098;48.792;9.012;2022-09-03T07:31:55;4.60;;;4.20;;
10116;SDS011;5098;48.792;9.012;2022-09-03T07:34:21;7.40;;;4.77;;
10116;SDS011;5098;48.792;9.012;2022-09-03T07:36:51;4.53;;;4.10;;
10116;SDS011;5098;48.792;9.012;2022-09-03T07:39:18;4.60;;;4.20;;
10116;SDS011;5098;48.792;9.012;2022-09-03T07:41:44;5.30;;;3.80;;
10116;SDS011;5098;48.792;9.012;2022-09-03T07:44:14;4.27;;;3.87;;
10116;SDS011;5098;48.792;9.012;2022-09-03T07:46:43;4.27;;;3.80;;
10116;SDS011;5098;48.792;9.012;2022-09-03T07:49:11;4.80;;;4.40;;
10116;SDS011;5098;48.792;9.012;2022-09-03T07:51:37;4.73;;;4.23;;
10116;SDS011;5098;48.792;9.012;2022-09-03T07:54:05;4.80;;;4.40;;
10116;SDS011;5098;48.792;9.012;2022-09-03T07:56:32;4.70;;;4.30;;
10116;SDS011;5098;48.792;9.012;2022-09-03T07:58:59;6.67;;;4.37;;
10116;SDS011;5098;48.792;9.012;2022-09-03T08:01:27;4.70;;;4.10;;
10116;SDS011;5098;48.792;9.012;2022-09-03T08:03:55;4.43;;;4.03;;
10116;SDS011;5098;48.792;9.012;2022-09-03T08:06:25;4.60;;;4.20;;
10116;SDS011;5098;48.792;9.012;2022-09-03T08:08:55;3.83;;;3.50;;
10116;SDS011;5098;48.792;9.012;2022-09-03T08:11:23;7.57;;;3.83;;
10116;SDS011;5098;48.792;9.012;2022-09-03T08:13:59;4.07;;;3.67;;
10116;SDS011;5098;48.792;9.012;2022-09-03T08:16:28;4.10;;;3.70;;
10116;SDS011;5098;48.792;9.012;2022-09-03T08:18:54;4.23;;;3.83;;
10116;SDS011;5098;48.792;9.012;2022-09-03T08:21:21;4.20;;;3.80;;
10116;SDS011;5098;48.792;9.012;2022-09-03T08:23:48;5.60;;;4.13;;
10116;SDS011;5098;48.792;9.012;2022-09-03T08:26:16;4.17;;;3.83;;
10116;SDS011;5098;48.792;9.012;2022-09-03T08:28:42;4.80;;;4.40;;
10116;SDS011;5098;48.792;9.012;2022-09-03T08:31:12;5.13;;;4.30;;
10116;SDS011;5098;48.792;9.012;2022-09-03T08:33:39;4.93;;;4.50;;
10116;SDS011;5098;48.792;9.012;2022-09-03T08:36:07;4.07;;;3.77;;
10116;SDS011;5098;48.792;9.012;2022-09-03T08:38:34;5.40;;;4.20;;
10116;SDS011;5098;48.792;9.012;2022-09-03T08:43:36;5.00;;;4.60;;
10116;SDS011;5098;48.792;9.012;2022-09-03T08:46:05;4.10;;;3.80;;
10116;SDS011;5098;48.792;9.012;2022-09-03T08:48:31;5.37;;;3.80;;
10116;SDS011;5098;48.792;9.012;2022-09-03T08:50:58;4.60;;;4.10;;
10116;SDS011;5098;48.792;9.012;2022-09-03T08:53:29;4.83;;;4.43;;
10116;SDS011;5098;48.792;9.012;2022-09-03T08:56:17;6.60;;;4.07;;
10116;SDS011;5098;48.792;9.012;2022-09-03T08:58:45;4.60;;;3.70;;
10116;SDS011;5098;48.792;9.012;2022-09-03T09:01:15;4.07;;;3.77;;
10116;SDS011;5098;48.792;9.012;2022-09-03T09:06:18;3.80;;;3.50;;
10116;SDS011;5098;48.792;9.012;2022-09-03T09:11:31;3.93;;;3.63;;
10116;SDS011;5098;48.792;9.012;2022-09-03T09:14:04;4.20;;;3.87;;
10116;SDS011;5098;48.792;9.012;2022-09-03T09:16:35;4.27;;;3.87;;
10116;SDS011;5098;48.792;9.012;2022-09-03T09:19:45;4.00;;;3.70;;
10116;SDS011;5098;48.792;9.012;2022-09-03T09:21:54;3.93;;;3.63;;
10116;SDS011;5098;48.792;9.012;2022-09-03T09:24:23;5.60;;;3.40;;
10116;SDS011;5098;48.792;9.012;2022-09-03T09:26:57;4.40;;;4.10;;
10116;SDS011;5098;48.792;9.012;2022-09-03T09:29:24;4.00;;;3.70;;
10116;SDS011;5098;48.792;9.012;2022-09-03T09:31:52;4.20;;;3.43;;
10116;SDS011;5098;48.792;9.012;2022-09-03T09:34:18;4.70;;;3.80;;
10116;SDS011;5098;48.792;9.012;2022-09-03T09:36:49;3.87;;;3.57;;
10116;SDS011;5098;48.792;9.012;2022-09-03T09:39:16;6.10;;;3.50;;
10116;SDS011;5098;48.792;9.012;2022-09-03T09:41:53;5.10;;;3.43;;
10116;SDS011;5098;48.792;9.012;2022-09-03T09:44:21;4.00;;;3.70;;
10116;SDS011;5098;48.792;9.012;2022-09-03T09:46:47;4.53;;;4.13;;
10116;SDS011;5098;48.792;9.012;2022-09-03T09:50:15;3.90;;;3.10;;
10116;SDS011;5098;48.792;9.012;2022-09-03T09:52:10;3.87;;;3.57;;
10116;SDS011;5098;48.792;9.012;2022-09-03T09:54:37;4.93;;;4.10;;
10116;SDS011;5098;48.792;9.012;2022-09-03T09:57:05;4.57;;;4.17;;
10116;SDS011;5098;48.792;9.012;2022-09-03T09:59:32;6.63;;;4.50;;
10116;SDS011;5098;48.792;9.012;2022-09-03T10:02:03;4.70;;;3.47;;
10116;SDS011;5098;48.792;9.012;2022-09-03T10:04:29;4.10;;;3.80;;
10116;SDS011;5098;48.792;9.012;2022-09-03T10:07:01;4.40;;;3.90;;
10116;SDS011;5098;48.792;9.012;2022-09-03T10:09:29;4.93;;;4.43;;
10116;SDS011;5098;48.792;9.012;2022-09-03T10:14:22;4.07;;;3.67;;
10116;SDS011;5098;48.792;9.012;2022-09-03T10:16:53;7.23;;;3.40;;
10116;SDS011;5098;48.792;9.012;2022-09-03T10:19:22;5.03;;;4.20;;
10116;SDS011;5098;48.792;9.012;2022-09-03T10:22:00;4.20;;;3.83;;
10116;SDS011;5098;48.792;9.012;2022-09-03T10:27:15;4.60;;;4.20;;
10116;SDS011;5098;48.792;9.012;2022-09-03T10:29:42;4.50;;;3.87;;
10116;SDS011;5098;48.792;9.012;2022-09-03T10:37:39;3.60;;;3.20;;
10116;SDS011;5098;48.792;9.012;2022-09-03T10:40:14;4.63;;;4.23;;
10116;SDS011;5098;48.792;9.012;2022-09-03T10:42:43;4.37;;;3.97;;
10116;SDS011;5098;48.792;9.012;2022-09-03T10:48:00;5.10;;;3.83;;
10116;SDS011;5098;48.792;9.012;2022-09-03T10:50:40;7.13;;;4.90;;
10116;SDS011;5098;48.792;9.012;2022-09-03T11:00:53;6.10;;;3.57;;
10116;SDS011;5098;48.792;9.012;2022-09-03T11:08:35;3.50;;;3.20;;
10116;SDS011;5098;48.792;9.012;2022-09-03T11:11:08;4.90;;;3.73;;
10116;SDS011;5098;48.792;9.012;2022-09-03T11:16:47;3.43;;;3.13;;
10116;SDS011;5098;48.792;9.012;2022-09-03T11:19:16;6.13;;;4.17;;
10116;SDS011;5098;48.792;9.012;2022-09-03T11:21:43;4.73;;;3.80;;
10116;SDS011;5098;48.792;9.012;2022-09-03T11:24:11;6.30;;;3.90;;
10116;SDS011;5098;48.792;9.012;2022-09-03T11:26:39;8.10;;;4.53;;
10116;SDS011;5098;48.792;9.012;2022-09-03T11:29:16;4.90;;;3.60;;
10116;SDS011;5098;48.792;9.012;2022-09-03T11:36:50;3.50;;;3.20;;
10116;SDS011;5098;48.792;9.012;2022-09-03T11:39:25;3.90;;;3.50;;
10116;SDS011;5098;48.792;9.012;2022-09-03T11:42:02;4.40;;;4.00;;
10116;SDS011;5098;48.792;9.012;2022-09-03T11:44:41;4.60;;;4.20;;
10116;SDS011;5098;48.792;9.012;2022-09-03T11:47:15;4.30;;;3.90;;
10116;SDS011;5098;48.792;9.012;2022-09-03T11:49:46;4.80;;;3.43;;
10116;SDS011;5098;48.792;9.012;2022-09-03T11:52:23;3.73;;;3.43;;
10116;SDS011;5098;48.792;9.012;2022-09-03T11:54:50;3.80;;;3.50;;
10116;SDS011;5098;48.792;9.012;2022-09-03T11:57:20;4.57;;;4.17;;
10116;SDS011;5098;48.792;9.012;2022-09-03T11:59:48;4.87;;;4.43;;
10116;SDS011;5098;48.792;9.012;2022-09-03T12:02:24;4.67;;;4.27;;
10116;SDS011;5098;48.792;9.012;2022-09-03T12:04:55;4.93;;;4.47;;
10116;SDS011;5098;48.792;9.012;2022-09-03T12:18:08;4.87;;;4.47;;
10116;SDS011;5098;48.792;9.012;2022-09-03T12:23:39;5.53;;;3.60;;
10116;SDS011;5098;48.792;9.012;2022-09-03T12:26:18;2.57;;;2.00;;
10116;SDS011;5098;48.792;9.012;2022-09-03T12:28:46;2.47;;;2.10;;
10116;SDS011;5098;48.792;9.012;2022-09-03T12:33:55;3.10;;;2.20;;
10116;SDS011;5098;48.792;9.012;2022-09-03T12:36:23;3.30;;;2.10;;
10116;SDS011;5098;48.792;9.012;2022-09-03T12:38:49;3.30;;;1.97;;
10116;SDS011;5098;48.792;9.012;2022-09-03T12:41:23;3.03;;;1.63;;
10116;SDS011;5098;48.792;9.012;2022-09-03T12:43:51;3.80;;;2.17;;
10116;SDS011;5098;48.792;9.012;2022-09-03T12:46:18;3.47;;;2.27;;
10116;SDS011;5098;48.792;9.012;2022-09-03T12:51:29;2.90;;;2.40;;
10116;SDS011;5098;48.792;9.012;2022-09-03T12:53:55;3.13;;;2.37;;
10116;SDS011;5098;48.792;9.012;2022-09-03T12:56:22;4.23;;;2.80;;
10116;SDS011;5098;48.792;9.012;2022-09-03T12:58:53;4.73;;;2.40;;
10116;SDS011;5098;48.792;9.012;2022-09-03T13:01:26;5.87;;;3.40;;
10116;SDS011;5098;48.792;9.012;2022-09-03T13:04:05;2.73;;;2.53;;
10116;SDS011;5098;48.792;9.012;2022-09-03T13:06:43;5.63;;;2.37;;
10116;SDS011;5098;48.792;9.012;2022-09-03T13:09:14;3.17;;;2.80;;
10116;SDS011;5098;48.792;9.012;2022-09-03T13:11:40;3.90;;;2.70;;
10116;SDS011;5098;48.792;9.012;2022-09-03T13:14:12;3.97;;;2.23;;
10116;SDS011;5098;48.792;9.012;2022-09-03T13:27:26;4.07;;;2.33;;
10116;SDS011;5098;48.792;9.012;2022-09-03T13:34:49;3.87;;;2.20;;
10116;SDS011;5098;48.792;9.012;2022-09-03T13:39:52;2.67;;;1.70;;
10116;SDS011;5098;48.792;9.012;2022-09-03T13:42:32;5.40;;;2.20;;
10116;SDS011;5098;48.792;9.012;2022-09-03T13:47:47;3.67;;;1.63;;
10116;SDS011;5098;48.792;9.012;2022-09-03T13:50:44;2.47;;;1.90;;
10116;SDS011;5098;48.792;9.012;2022-09-03T13:56:01;2.80;;;1.70;;
10116;SDS011;5098;48.792;9.012;2022-09-03T13:58:37;3.60;;;1.70;;
10116;SDS011;5098;48.792;9.012;2022-09-03T14:03:45;3.07;;;2.30;;
10116;SDS011;5098;48.792;9.012;2022-09-03T14:06:33;2.67;;;2.10;;
10116;SDS011;5098;48.792;9.012;2022-09-03T14:09:19;3.00;;;2.33;;
10116;SDS011;5098;48.792;9.012;2022-09-03T14:12:00;2.50;;;2.30;;
10116;SDS011;5098;48.792;9.012;2022-09-03T14:25:14;2.20;;;2.00;;
10116;SDS011;5098;48.792;9.012;2022-09-03T14:27:41;2.60;;;2.40;;
10116;SDS011;5098;48.792;9.012;2022-09-03T14:30:29;3.00;;;2.23;;
10116;SDS011;5098;48.792;9.012;2022-09-03T14:33:07;3.27;;;2.13;;
10116;SDS011;5098;48.792;9.012;2022-09-03T14:35:47;2.23;;;2.03;;
10116;SDS011;5098;48.792;9.012;2022-09-03T14:40:45;2.37;;;2.17;;
10116;SDS011;5098;48.792;9.012;2022-09-03T14:53:20;1.90;;;1.80;;
10116;SDS011;5098;48.792;9.012;2022-09-03T15:01:16;2.30;;;2.07;;
10116;SDS011;5098;48.792;9.012;2022-09-03T15:06:27;3.00;;;2.07;;
10116;SDS011;5098;48.792;9.012;2022-09-03T15:11:42;2.50;;;2.23;;
10116;SDS011;5098;48.792;9.012;2022-09-03T15:14:25;2.60;;;2.40;;
10116;SDS011;5098;48.792;9.012;2022-09-03T15:22:07;5.33;;;2.53;;
10116;SDS011;5098;48.792;9.012;2022-09-03T15:27:10;2.90;;;2.70;;
10116;SDS011;5098;48.792;9.012;2022-09-03T15:37:57;4.47;;;2.80;;
10116;SDS011;5098;48.792;9.012;2022-09-03T15:40:05;3.00;;;2.73;;
10116;SDS011;5098;48.792;9.012;2022-09-03T15:42:34;3.17;;;2.40;;
10116;SDS011;5098;48.792;9.012;2022-09-03T15:45:06;2.73;;;2.37;;
10116;SDS011;5098;48.792;9.012;2022-09-03T15:55:30;3.53;;;2.50;;
10116;SDS011;5098;48.792;9.012;2022-09-03T16:03:10;4.00;;;2.30;;
10116;SDS011;5098;48.792;9.012;2022-09-03T16:11:00;3.30;;;2.43;;
10116;SDS011;5098;48.792;9.012;2022-09-03T16:16:10;3.00;;;2.60;;
10116;SDS011;5098;48.792;9.012;2022-09-03T16:21:29;2.77;;;2.47;;
10116;SDS011;5098;48.792;9.012;2022-09-03T16:23:58;2.70;;;2.40;;
10116;SDS011;5098;48.792;9.012;2022-09-03T16:26:33;3.20;;;2.90;;
10116;SDS011;5098;48.792;9.012;2022-09-03T16:29:07;3.03;;;2.73;;
10116;SDS011;5098;48.792;9.012;2022-09-03T16:36:45;4.53;;;2.90;;
10116;SDS011;5098;48.792;9.012;2022-09-03T16:39:17;3.30;;;2.70;;
10116;SDS011;5098;48.792;9.012;2022-09-03T16:44:17;4.00;;;3.23;;
10116;SDS011;5098;48.792;9.012;2022-09-03T16:46:59;3.00;;;2.70;;
10116;SDS011;5098;48.792;9.012;2022-09-03T16:50:12;4.83;;;3.00;;
10116;SDS011;5098;48.792;9.012;2022-09-03T16:52:28;4.10;;;2.90;;
10116;SDS011;5098;48.792;9.012;2022-09-03T17:00:12;3.27;;;2.97;;
10116;SDS011;5098;48.792;9.012;2022-09-03T17:05:17;3.83;;;2.93;;
10116;SDS011;5098;48.792;9.012;2022-09-03T17:10:38;2.87;;;2.67;;
10116;SDS011;5098;48.792;9.012;2022-09-03T17:15:55;4.27;;;2.90;;
10116;SDS011;5098;48.792;9.012;2022-09-03T17:18:29;2.77;;;2.57;;
10116;SDS011;5098;48.792;9.012;2022-09-03T17:21:06;4.20;;;3.60;;
10116;SDS011;5098;48.792;9.012;2022-09-03T17:26:06;3.77;;;2.97;;
10116;SDS011;5098;48.792;9.012;2022-09-03T17:36:26;4.20;;;3.67;;
10116;SDS011;5098;48.792;9.012;2022-09-03T17:49:25;6.80;;;5.00;;
10116;SDS011;5098;48.792;9.012;2022-09-03T17:52:06;6.30;;;5.50;;
10116;SDS011;5098;48.792;9.012;2022-09-03T17:57:16;6.53;;;5.20;;
10116;SDS011;5098;48.792;9.012;2022-09-03T17:59:46;5.43;;;4.33;;
10116;SDS011;5098;48.792;9.012;2022-09-03T18:04:52;6.43;;;4.50;;
10116;SDS011;5098;48.792;9.012;2022-09-03T18:07:23;6.13;;;4.83;;
10116;SDS011;5098;48.792;9.012;2022-09-03T18:09:58;5.83;;;5.27;;
10116;SDS011;5098;48.792;9.012;2022-09-03T18:12:28;6.10;;;5.50;;
10116;SDS011;5098;48.792;9.012;2022-09-03T18:14:59;5.83;;;5.37;;
10116;SDS011;5098;48.792;9.012;2022-09-03T18:17:32;6.50;;;5.43;;
10116;SDS011;5098;48.792;9.012;2022-09-03T18:20:06;9.90;;;7.50;;
10116;SDS011;5098;48.792;9.012;2022-09-03T18:22:52;7.20;;;6.50;;
10116;SDS011;5098;48.792;9.012;2022-09-03T18:25:39;7.50;;;6.73;;
10116;SDS011;5098;48.792;9.012;2022-09-03T18:28:31;6.17;;;5.10;;
10116;SDS011;5098;48.792;9.012;2022-09-03T18:31:18;4.30;;;3.97;;
10116;SDS011;5098;48.792;9.012;2022-09-03T18:34:03;7.70;;;4.90;;
10116;SDS011;5098;48.792;9.012;2022-09-03T18:36:47;5.33;;;4.93;;
10116;SDS011;5098;48.792;9.012;2022-09-03T18:39:32;7.87;;;6.43;;
10116;SDS011;5098;48.792;9.012;2022-09-03T18:47:59;6.20;;;5.70;;
10116;SDS011;5098;48.792;9.012;2022-09-03T18:51:05;6.47;;;5.70;;
10116;SDS011;5098;48.792;9.012;2022-09-03T18:56:51;7.87;;;7.00;;
10116;SDS011;5098;48.792;9.012;2022-09-03T19:02:40;12.57;;;7.43;;
10116;SDS011;5098;48.792;9.012;2022-09-03T19:06:02;8.13;;;7.20;;
10116;SDS011;5098;48.792;9.012;2022-09-03T19:08:40;9.90;;;7.50;;
10116;SDS011;5098;48.792;9.012;2022-09-03T19:11:28;9.37;;;8.37;;
10116;SDS011;5098;48.792;9.012;2022-09-03T19:14:22;7.67;;;7.00;;
10116;SDS011;5098;48.792;9.012;2022-09-03T19:17:33;7.67;;;7.07;;
10116;SDS011;5098;48.792;9.012;2022-09-03T19:20:21;7.80;;;7.10;;
10116;SDS011;5098;48.792;9.012;2022-09-03T19:23:08;9.53;;;8.00;;
10116;SDS011;5098;48.792;9.012;2022-09-03T19:25:53;8.50;;;7.70;;
10116;SDS011;5098;48.792;9.012;2022-09-03T19:28:43;7.57;;;6.87;;
10116;SDS011;5098;48.792;9.012;2022-09-03T19:31:35;11.40;;;7.27;;
10116;SDS011;5098;48.792;9.012;2022-09-03T19:37:17;7.93;;;7.10;;
10116;SDS011;5098;48.792;9.012;2022-09-03T19:43:30;8.53;;;7.63;;
10116;SDS011;5098;48.792;9.012;2022-09-03T19:54:46;8.57;;;7.67;;
10116;SDS011;5098;48.792;9.012;2022-09-03T19:57:33;13.37;;;12.07;;
10116;SDS011;5098;48.792;9.012;2022-09-03T20:00:18;7.33;;;6.63;;
10116;SDS011;5098;48.792;9.012;2022-09-03T20:03:02;10.17;;;9.13;;
10116;SDS011;5098;48.792;9.012;2022-09-03T20:05:48;8.90;;;8.03;;
10116;SDS011;5098;48.792;9.012;2022-09-03T20:08:33;8.70;;;7.80;;